TimeEST,TemperatureF,Dew PointF,Humidity,Sea Level PressureIn,VisibilityMPH,Wind Direction,Wind SpeedMPH,Gust SpeedMPH,PrecipitationIn,Events,Conditions,WindDirDegrees,DateUTC
12:17 AM,19.0,16.7,91,30.40,10.0,Calm,Calm,-,N/A,,Overcast,0,2013-03-08 05:17:00
12:36 AM,18.5,16.3,91,30.40,10.0,Calm,Calm,-,N/A,,Overcast,0,2013-03-08 05:36:00
12:57 AM,19.2,16.7,90,30.41,10.0,Calm,Calm,-,N/A,,Overcast,0,2013-03-08 05:57:00
1:17 AM,19.4,17.1,91,30.41,10.0,Calm,Calm,-,N/A,,Overcast,0,2013-03-08 06:17:00
1:36 AM,18.7,16.7,92,30.41,10.0,Calm,Calm,-,N/A,,Mostly Cloudy,0,2013-03-08 06:36:00
1:57 AM,17.1,15.4,93,30.41,10.0,Calm,Calm,-,N/A,,Scattered Clouds,0,2013-03-08 06:57:00
2:17 AM,16.2,14.4,93,30.41,7.0,Calm,Calm,-,N/A,,Scattered Clouds,0,2013-03-08 07:17:00
2:36 AM,12.9,10.4,90,30.41,10.0,Calm,Calm,-,N/A,,Clear,0,2013-03-08 07:36:00
2:57 AM,12.7,10.6,91,30.40,5.0,Calm,Calm,-,N/A,,Clear,0,2013-03-08 07:57:00
3:17 AM,11.5,9.0,90,30.40,10.0,Calm,Calm,-,N/A,,Clear,0,2013-03-08 08:17:00
3:36 AM,11.3,8.8,90,30.39,7.0,Calm,Calm,-,N/A,,Clear,0,2013-03-08 08:36:00
3:57 AM,10.6,7.9,89,30.39,10.0,Calm,Calm,-,N/A,,Clear,0,2013-03-08 08:57:00
4:17 AM,9.1,6.4,89,30.39,2.5,Calm,Calm,-,N/A,,Clear,0,2013-03-08 09:17:00
4:36 AM,8.2,5.5,89,30.40,0.8,Calm,Calm,-,N/A,,Mist,0,2013-03-08 09:36:00
4:57 AM,6.4,3.4,87,30.41,7.0,Calm,Calm,-,N/A,,Clear,0,2013-03-08 09:57:00
5:16 AM,4.5,1.0,86,30.41,10.0,Calm,Calm,-,N/A,,Clear,0,2013-03-08 10:16:00
5:37 AM,5.9,2.8,87,30.41,10.0,Calm,Calm,-,N/A,,Clear,0,2013-03-08 10:37:00
5:57 AM,8.4,5.9,89,30.41,10.0,Calm,Calm,-,N/A,,Clear,0,2013-03-08 10:57:00
6:50 AM,5.0,1.4,85,30.42,10.0,Calm,Calm,-,N/A,,Clear,0,2013-03-08 11:50:00
7:50 AM,6.8,3.2,85,30.41,10.0,SSW,3.5,-,N/A,,Clear,200,2013-03-08 12:50:00
8:50 AM,14.0,12.2,93,30.41,10.0,South,4.6,-,N/A,,Scattered Clouds,190,2013-03-08 13:50:00
9:50 AM,19.4,17.6,93,30.39,10.0,SSW,9.2,-,N/A,,Clear,210,2013-03-08 14:50:00
10:50 AM,24.8,19.4,80,30.39,10.0,SSW,17.3,23.0,N/A,,Scattered Clouds,210,2013-03-08 15:50:00
11:50 AM,28.4,19.4,69,30.37,10.0,SSW,12.7,-,N/A,,Partly Cloudy,200,2013-03-08 16:50:00
12:50 PM,30.2,19.4,64,30.35,10.0,SSW,15.0,19.6,N/A,,Scattered Clouds,200,2013-03-08 17:50:00
1:50 PM,32.0,21.2,64,30.33,10.0,SSW,11.5,-,N/A,,Scattered Clouds,200,2013-03-08 18:50:00
2:50 PM,35.6,21.2,56,30.30,10.0,SSW,13.8,-,N/A,,Partly Cloudy,200,2013-03-08 19:50:00
3:50 PM,35.6,21.2,56,30.30,10.0,SSW,15.0,20.7,N/A,,Scattered Clouds,200,2013-03-08 20:50:00
4:50 PM,35.6,21.2,56,30.27,10.0,South,13.8,-,N/A,,Partly Cloudy,190,2013-03-08 21:50:00
5:50 PM,35.6,21.2,56,30.26,10.0,South,11.5,-,N/A,,Clear,190,2013-03-08 22:50:00
6:50 PM,32.0,23.0,69,30.26,10.0,SSE,11.5,-,N/A,,Clear,160,2013-03-08 23:50:00
7:50 PM,30.2,23.0,75,30.27,10.0,South,9.2,-,N/A,,Clear,170,2013-03-09 00:50:00
8:50 PM,28.4,23.0,80,30.27,10.0,South,8.1,-,N/A,,Clear,180,2013-03-09 01:50:00
9:50 PM,26.6,23.0,86,30.27,10.0,South,8.1,-,N/A,,Clear,170,2013-03-09 02:50:00
10:17 PM,27.7,22.5,81,30.27,10.0,South,10.4,-,N/A,,Clear,180,2013-03-09 03:17:00
10:36 PM,27.3,22.1,81,30.26,10.0,South,10.4,-,N/A,,Clear,180,2013-03-09 03:36:00
10:57 PM,27.1,22.3,82,30.26,10.0,South,10.4,-,N/A,,Clear,180,2013-03-09 03:57:00
11:16 PM,26.8,22.6,84,30.25,10.0,South,11.5,-,N/A,,Clear,180,2013-03-09 04:16:00
11:37 PM,26.4,22.8,86,30.25,10.0,South,10.4,-,N/A,,Clear,180,2013-03-09 04:37:00
11:57 PM,26.4,23.2,88,30.25,10.0,South,11.5,-,N/A,,Clear,190,2013-03-09 04:57:00